sensor_id;sensor_type;location;lat;lon;timestamp;P1;durP1;ratioP1;P2;durP2;ratioP2
49488;SDS011;35382;51.484;11.476;2022-12-18T00:00:11;39.78;;;17.88;;
49488;SDS011;35382;51.484;11.476;2022-12-18T00:01:57;37.08;;;17.33;;
49488;SDS011;35382;51.484;11.476;2022-12-18T00:03:40;36.13;;;17.15;;
49488;SDS011;35382;51.484;11.476;2022-12-18T00:05:21;40.45;;;17.50;;
49488;SDS011;35382;51.484;11.476;2022-12-18T00:07:02;38.30;;;18.38;;
49488;SDS011;35382;51.484;11.476;2022-12-18T00:08:44;40.45;;;18.77;;
49488;SDS011;35382;51.484;11.476;2022-12-18T00:10:27;39.50;;;17.58;;
49488;SDS011;35382;51.484;11.476;2022-12-18T00:12:09;34.70;;;17.13;;
49488;SDS011;35382;51.484;11.476;2022-12-18T00:13:51;33.25;;;16.58;;
49488;SDS011;35382;51.484;11.476;2022-12-18T00:15:35;39.80;;;18.23;;
49488;SDS011;35382;51.484;11.476;2022-12-18T00:17:17;39.88;;;19.35;;
49488;SDS011;35382;51.484;11.476;2022-12-18T00:18:59;37.95;;;18.10;;
49488;SDS011;35382;51.484;11.476;2022-12-18T00:20:41;39.80;;;19.17;;
49488;SDS011;35382;51.484;11.476;2022-12-18T00:22:22;36.25;;;18.25;;
49488;SDS011;35382;51.484;11.476;2022-12-18T00:24:03;38.33;;;18.83;;
49488;SDS011;35382;51.484;11.476;2022-12-18T00:25:45;42.65;;;18.33;;
49488;SDS011;35382;51.484;11.476;2022-12-18T00:27:26;44.20;;;19.55;;
49488;SDS011;35382;51.484;11.476;2022-12-18T00:29:10;37.10;;;18.05;;
49488;SDS011;35382;51.484;11.476;2022-12-18T00:31:07;34.20;;;17.50;;
49488;SDS011;35382;51.484;11.476;2022-12-18T00:32:54;32.60;;;15.98;;
49488;SDS011;35382;51.484;11.476;2022-12-18T00:34:35;27.92;;;14.75;;
49488;SDS011;35382;51.484;11.476;2022-12-18T00:36:18;31.02;;;14.35;;
49488;SDS011;35382;51.484;11.476;2022-12-18T00:38:00;28.13;;;14.32;;
49488;SDS011;35382;51.484;11.476;2022-12-18T00:39:42;31.70;;;16.25;;
49488;SDS011;35382;51.484;11.476;2022-12-18T00:41:23;31.63;;;15.55;;
49488;SDS011;35382;51.484;11.476;2022-12-18T00:43:24;34.15;;;15.20;;
49488;SDS011;35382;51.484;11.476;2022-12-18T00:45:07;36.92;;;16.27;;
49488;SDS011;35382;51.484;11.476;2022-12-18T00:46:49;29.85;;;14.73;;
49488;SDS011;35382;51.484;11.476;2022-12-18T00:48:30;33.33;;;16.58;;
49488;SDS011;35382;51.484;11.476;2022-12-18T00:50:12;30.60;;;14.52;;
49488;SDS011;35382;51.484;11.476;2022-12-18T00:51:55;33.47;;;15.80;;
49488;SDS011;35382;51.484;11.476;2022-12-18T00:53:37;32.30;;;14.93;;
49488;SDS011;35382;51.484;11.476;2022-12-18T00:55:18;36.15;;;16.88;;
49488;SDS011;35382;51.484;11.476;2022-12-18T00:57:01;33.92;;;15.25;;
49488;SDS011;35382;51.484;11.476;2022-12-18T00:58:43;31.83;;;15.55;;
49488;SDS011;35382;51.484;11.476;2022-12-18T01:00:25;40.42;;;17.23;;
49488;SDS011;35382;51.484;11.476;2022-12-18T01:02:06;46.42;;;19.30;;
49488;SDS011;35382;51.484;11.476;2022-12-18T01:03:47;40.67;;;19.23;;
49488;SDS011;35382;51.484;11.476;2022-12-18T01:05:30;38.50;;;17.65;;
49488;SDS011;35382;51.484;11.476;2022-12-18T01:07:12;46.15;;;19.05;;
49488;SDS011;35382;51.484;11.476;2022-12-18T01:08:53;50.35;;;21.42;;
49488;SDS011;35382;51.484;11.476;2022-12-18T01:10:35;55.78;;;22.52;;
49488;SDS011;35382;51.484;11.476;2022-12-18T01:12:20;49.55;;;22.30;;
49488;SDS011;35382;51.484;11.476;2022-12-18T01:14:04;47.33;;;20.90;;
49488;SDS011;35382;51.484;11.476;2022-12-18T01:15:49;44.58;;;19.85;;
49488;SDS011;35382;51.484;11.476;2022-12-18T01:17:31;42.45;;;18.88;;
49488;SDS011;35382;51.484;11.476;2022-12-18T01:19:15;40.42;;;19.95;;
49488;SDS011;35382;51.484;11.476;2022-12-18T01:20:56;40.80;;;18.80;;
49488;SDS011;35382;51.484;11.476;2022-12-18T01:22:38;40.72;;;18.77;;
49488;SDS011;35382;51.484;11.476;2022-12-18T01:24:21;43.50;;;19.83;;
49488;SDS011;35382;51.484;11.476;2022-12-18T01:26:04;42.88;;;19.77;;
49488;SDS011;35382;51.484;11.476;2022-12-18T01:27:49;51.33;;;22.27;;
49488;SDS011;35382;51.484;11.476;2022-12-18T01:29:30;52.55;;;23.00;;
49488;SDS011;35382;51.484;11.476;2022-12-18T01:31:33;67.97;;;23.48;;
49488;SDS011;35382;51.484;11.476;2022-12-18T01:33:16;128.70;;;28.52;;
49488;SDS011;35382;51.484;11.476;2022-12-18T01:34:58;96.90;;;29.63;;
49488;SDS011;35382;51.484;11.476;2022-12-18T01:36:41;128.80;;;30.13;;
49488;SDS011;35382;51.484;11.476;2022-12-18T01:38:23;87.80;;;29.52;;
49488;SDS011;35382;51.484;11.476;2022-12-18T01:40:04;76.72;;;25.77;;
49488;SDS011;35382;51.484;11.476;2022-12-18T01:41:46;62.40;;;24.23;;
49488;SDS011;35382;51.484;11.476;2022-12-18T01:43:50;56.70;;;23.33;;
49488;SDS011;35382;51.484;11.476;2022-12-18T01:45:35;47.67;;;21.02;;
49488;SDS011;35382;51.484;11.476;2022-12-18T01:49:22;42.72;;;20.25;;
49488;SDS011;35382;51.484;11.476;2022-12-18T01:51:03;41.80;;;19.50;;
49488;SDS011;35382;51.484;11.476;2022-12-18T01:52:50;39.00;;;20.65;;
49488;SDS011;35382;51.484;11.476;2022-12-18T01:54:34;48.65;;;20.05;;
49488;SDS011;35382;51.484;11.476;2022-12-18T01:56:16;40.08;;;18.95;;
49488;SDS011;35382;51.484;11.476;2022-12-18T01:58:03;45.92;;;21.88;;
49488;SDS011;35382;51.484;11.476;2022-12-18T01:59:46;58.67;;;23.25;;
49488;SDS011;35382;51.484;11.476;2022-12-18T02:01:30;58.42;;;22.88;;
49488;SDS011;35382;51.484;11.476;2022-12-18T02:03:16;57.95;;;24.25;;
49488;SDS011;35382;51.484;11.476;2022-12-18T02:05:00;58.75;;;23.52;;
49488;SDS011;35382;51.484;11.476;2022-12-18T02:06:41;72.82;;;24.70;;
49488;SDS011;35382;51.484;11.476;2022-12-18T02:08:30;63.22;;;25.33;;
49488;SDS011;35382;51.484;11.476;2022-12-18T02:12:11;74.97;;;27.70;;
49488;SDS011;35382;51.484;11.476;2022-12-18T02:15:55;86.95;;;26.75;;
49488;SDS011;35382;51.484;11.476;2022-12-18T02:17:42;61.67;;;25.92;;
49488;SDS011;35382;51.484;11.476;2022-12-18T02:26:55;62.60;;;26.52;;
49488;SDS011;35382;51.484;11.476;2022-12-18T02:28:11;56.25;;;23.80;;
49488;SDS011;35382;51.484;11.476;2022-12-18T02:29:56;58.38;;;25.08;;
49488;SDS011;35382;51.484;11.476;2022-12-18T02:31:44;79.55;;;25.98;;
49488;SDS011;35382;51.484;11.476;2022-12-18T02:33:30;70.45;;;25.98;;
49488;SDS011;35382;51.484;11.476;2022-12-18T02:35:15;69.55;;;26.45;;
49488;SDS011;35382;51.484;11.476;2022-12-18T02:37:05;69.18;;;23.95;;
49488;SDS011;35382;51.484;11.476;2022-12-18T02:38:52;79.65;;;24.98;;
49488;SDS011;35382;51.484;11.476;2022-12-18T02:40:36;65.43;;;23.60;;
49488;SDS011;35382;51.484;11.476;2022-12-18T02:42:19;55.92;;;22.65;;
49488;SDS011;35382;51.484;11.476;2022-12-18T02:44:06;56.00;;;23.63;;
49488;SDS011;35382;51.484;11.476;2022-12-18T02:47:38;56.55;;;22.23;;
49488;SDS011;35382;51.484;11.476;2022-12-18T02:51:17;54.75;;;23.75;;
49488;SDS011;35382;51.484;11.476;2022-12-18T02:55:48;55.00;;;24.63;;
49488;SDS011;35382;51.484;11.476;2022-12-18T02:57:48;70.00;;;24.85;;
49488;SDS011;35382;51.484;11.476;2022-12-18T02:59:42;53.08;;;22.20;;
49488;SDS011;35382;51.484;11.476;2022-12-18T03:01:59;63.75;;;25.52;;
49488;SDS011;35382;51.484;11.476;2022-12-18T03:03:52;73.75;;;26.75;;
49488;SDS011;35382;51.484;11.476;2022-12-18T03:07:52;84.50;;;27.48;;
49488;SDS011;35382;51.484;11.476;2022-12-18T03:09:41;81.60;;;27.00;;
49488;SDS011;35382;51.484;11.476;2022-12-18T03:11:29;129.30;;;28.85;;
49488;SDS011;35382;51.484;11.476;2022-12-18T03:15:46;95.35;;;26.58;;
49488;SDS011;35382;51.484;11.476;2022-12-18T03:17:32;122.07;;;30.02;;
49488;SDS011;35382;51.484;11.476;2022-12-18T03:19:15;79.70;;;26.67;;
49488;SDS011;35382;51.484;11.476;2022-12-18T03:21:00;64.15;;;25.50;;
49488;SDS011;35382;51.484;11.476;2022-12-18T03:22:47;69.97;;;26.77;;
49488;SDS011;35382;51.484;11.476;2022-12-18T03:24:34;56.00;;;24.17;;
49488;SDS011;35382;51.484;11.476;2022-12-18T03:26:22;61.08;;;23.45;;
49488;SDS011;35382;51.484;11.476;2022-12-18T03:28:13;65.22;;;25.05;;
49488;SDS011;35382;51.484;11.476;2022-12-18T03:30:08;63.75;;;23.08;;
49488;SDS011;35382;51.484;11.476;2022-12-18T03:31:54;48.45;;;21.80;;
49488;SDS011;35382;51.484;11.476;2022-12-18T03:33:43;46.70;;;21.33;;
49488;SDS011;35382;51.484;11.476;2022-12-18T03:35:34;51.03;;;20.35;;
49488;SDS011;35382;51.484;11.476;2022-12-18T03:37:19;46.67;;;21.58;;
49488;SDS011;35382;51.484;11.476;2022-12-18T03:39:02;50.28;;;21.73;;
49488;SDS011;35382;51.484;11.476;2022-12-18T03:43:26;42.88;;;18.48;;
49488;SDS011;35382;51.484;11.476;2022-12-18T03:51:26;38.60;;;17.35;;
49488;SDS011;35382;51.484;11.476;2022-12-18T03:53:26;37.45;;;16.95;;
49488;SDS011;35382;51.484;11.476;2022-12-18T03:55:27;34.53;;;16.67;;
49488;SDS011;35382;51.484;11.476;2022-12-18T03:57:18;34.88;;;17.10;;
49488;SDS011;35382;51.484;11.476;2022-12-18T03:59:04;37.67;;;16.33;;
49488;SDS011;35382;51.484;11.476;2022-12-18T04:00:48;35.17;;;16.98;;
49488;SDS011;35382;51.484;11.476;2022-12-18T04:02:32;38.38;;;16.58;;
49488;SDS011;35382;51.484;11.476;2022-12-18T04:04:17;34.55;;;16.20;;
49488;SDS011;35382;51.484;11.476;2022-12-18T04:05:59;37.75;;;16.05;;
49488;SDS011;35382;51.484;11.476;2022-12-18T04:07:42;33.72;;;15.63;;
49488;SDS011;35382;51.484;11.476;2022-12-18T04:09:26;36.67;;;16.13;;
49488;SDS011;35382;51.484;11.476;2022-12-18T04:11:08;36.03;;;15.10;;
49488;SDS011;35382;51.484;11.476;2022-12-18T04:12:50;31.80;;;14.15;;
49488;SDS011;35382;51.484;11.476;2022-12-18T04:14:31;35.20;;;15.07;;
49488;SDS011;35382;51.484;11.476;2022-12-18T04:16:18;36.90;;;14.48;;
49488;SDS011;35382;51.484;11.476;2022-12-18T04:18:01;39.63;;;16.05;;
49488;SDS011;35382;51.484;11.476;2022-12-18T04:19:50;40.45;;;15.00;;
49488;SDS011;35382;51.484;11.476;2022-12-18T04:21:32;40.30;;;16.10;;
49488;SDS011;35382;51.484;11.476;2022-12-18T04:23:13;36.00;;;16.17;;
49488;SDS011;35382;51.484;11.476;2022-12-18T04:24:55;34.67;;;15.75;;
49488;SDS011;35382;51.484;11.476;2022-12-18T04:26:44;40.00;;;16.38;;
49488;SDS011;35382;51.484;11.476;2022-12-18T04:28:32;32.55;;;15.38;;
49488;SDS011;35382;51.484;11.476;2022-12-18T04:30:13;46.08;;;19.35;;
49488;SDS011;35382;51.484;11.476;2022-12-18T04:31:55;54.10;;;22.48;;
49488;SDS011;35382;51.484;11.476;2022-12-18T04:33:39;49.60;;;20.00;;
49488;SDS011;35382;51.484;11.476;2022-12-18T04:35:21;57.30;;;21.08;;
49488;SDS011;35382;51.484;11.476;2022-12-18T04:37:02;56.60;;;20.50;;
49488;SDS011;35382;51.484;11.476;2022-12-18T04:38:44;45.40;;;18.05;;
49488;SDS011;35382;51.484;11.476;2022-12-18T04:40:29;45.25;;;18.38;;
49488;SDS011;35382;51.484;11.476;2022-12-18T04:42:11;42.20;;;18.45;;
49488;SDS011;35382;51.484;11.476;2022-12-18T04:43:52;44.67;;;17.08;;
49488;SDS011;35382;51.484;11.476;2022-12-18T04:45:34;40.17;;;17.02;;
49488;SDS011;35382;51.484;11.476;2022-12-18T04:47:15;34.33;;;15.98;;
49488;SDS011;35382;51.484;11.476;2022-12-18T04:48:56;35.72;;;15.73;;
49488;SDS011;35382;51.484;11.476;2022-12-18T04:50:38;35.30;;;14.55;;
49488;SDS011;35382;51.484;11.476;2022-12-18T04:52:19;31.65;;;15.23;;
49488;SDS011;35382;51.484;11.476;2022-12-18T04:54:00;39.08;;;15.75;;
49488;SDS011;35382;51.484;11.476;2022-12-18T04:55:42;33.05;;;14.60;;
49488;SDS011;35382;51.484;11.476;2022-12-18T04:57:23;35.22;;;14.25;;
49488;SDS011;35382;51.484;11.476;2022-12-18T04:59:04;32.10;;;14.88;;
49488;SDS011;35382;51.484;11.476;2022-12-18T05:00:46;36.72;;;14.25;;
49488;SDS011;35382;51.484;11.476;2022-12-18T05:02:27;39.28;;;15.15;;
49488;SDS011;35382;51.484;11.476;2022-12-18T05:04:08;36.58;;;16.70;;
49488;SDS011;35382;51.484;11.476;2022-12-18T05:05:50;36.38;;;15.82;;
49488;SDS011;35382;51.484;11.476;2022-12-18T05:07:32;43.03;;;16.40;;
49488;SDS011;35382;51.484;11.476;2022-12-18T05:09:13;41.22;;;16.15;;
49488;SDS011;35382;51.484;11.476;2022-12-18T05:11:01;34.92;;;15.57;;
49488;SDS011;35382;51.484;11.476;2022-12-18T05:12:47;35.22;;;14.35;;
49488;SDS011;35382;51.484;11.476;2022-12-18T05:14:40;44.97;;;18.05;;
49488;SDS011;35382;51.484;11.476;2022-12-18T05:16:22;44.25;;;18.20;;
49488;SDS011;35382;51.484;11.476;2022-12-18T05:18:03;57.10;;;21.83;;
49488;SDS011;35382;51.484;11.476;2022-12-18T05:19:45;52.20;;;20.42;;
49488;SDS011;35382;51.484;11.476;2022-12-18T05:21:26;59.47;;;22.45;;
49488;SDS011;35382;51.484;11.476;2022-12-18T05:23:07;62.85;;;24.20;;
49488;SDS011;35382;51.484;11.476;2022-12-18T05:24:49;60.92;;;23.80;;
49488;SDS011;35382;51.484;11.476;2022-12-18T05:26:30;51.42;;;22.35;;
49488;SDS011;35382;51.484;11.476;2022-12-18T05:28:11;40.75;;;19.63;;
49488;SDS011;35382;51.484;11.476;2022-12-18T05:29:53;35.97;;;16.05;;
49488;SDS011;35382;51.484;11.476;2022-12-18T05:31:34;46.20;;;18.02;;
49488;SDS011;35382;51.484;11.476;2022-12-18T05:33:16;37.05;;;15.98;;
49488;SDS011;35382;51.484;11.476;2022-12-18T05:34:58;34.55;;;14.70;;
49488;SDS011;35382;51.484;11.476;2022-12-18T05:36:39;34.28;;;15.73;;
49488;SDS011;35382;51.484;11.476;2022-12-18T05:38:21;32.53;;;14.45;;
49488;SDS011;35382;51.484;11.476;2022-12-18T05:40:03;38.22;;;16.80;;
49488;SDS011;35382;51.484;11.476;2022-12-18T05:41:45;59.65;;;20.15;;
49488;SDS011;35382;51.484;11.476;2022-12-18T05:43:27;52.50;;;19.60;;
49488;SDS011;35382;51.484;11.476;2022-12-18T05:45:10;51.95;;;20.00;;
49488;SDS011;35382;51.484;11.476;2022-12-18T05:46:52;75.32;;;22.88;;
49488;SDS011;35382;51.484;11.476;2022-12-18T05:48:33;74.05;;;23.48;;
49488;SDS011;35382;51.484;11.476;2022-12-18T05:50:15;56.35;;;21.90;;
49488;SDS011;35382;51.484;11.476;2022-12-18T05:51:56;66.03;;;23.25;;
49488;SDS011;35382;51.484;11.476;2022-12-18T05:53:38;62.47;;;22.83;;
49488;SDS011;35382;51.484;11.476;2022-12-18T05:55:19;67.53;;;24.73;;
49488;SDS011;35382;51.484;11.476;2022-12-18T05:57:00;117.88;;;28.95;;
49488;SDS011;35382;51.484;11.476;2022-12-18T05:58:42;74.32;;;25.35;;
49488;SDS011;35382;51.484;11.476;2022-12-18T06:00:23;74.10;;;26.50;;
49488;SDS011;35382;51.484;11.476;2022-12-18T06:02:05;70.28;;;25.40;;
49488;SDS011;35382;51.484;11.476;2022-12-18T06:03:46;59.38;;;23.98;;
49488;SDS011;35382;51.484;11.476;2022-12-18T06:05:27;62.88;;;24.00;;
49488;SDS011;35382;51.484;11.476;2022-12-18T06:07:09;60.33;;;22.58;;
49488;SDS011;35382;51.484;11.476;2022-12-18T06:08:51;77.00;;;23.90;;
49488;SDS011;35382;51.484;11.476;2022-12-18T06:10:33;58.92;;;22.17;;
49488;SDS011;35382;51.484;11.476;2022-12-18T06:12:14;58.55;;;22.23;;
49488;SDS011;35382;51.484;11.476;2022-12-18T06:13:56;69.90;;;26.20;;
49488;SDS011;35382;51.484;11.476;2022-12-18T06:15:37;67.20;;;24.05;;
49488;SDS011;35382;51.484;11.476;2022-12-18T06:17:19;75.25;;;25.17;;
49488;SDS011;35382;51.484;11.476;2022-12-18T06:19:02;86.18;;;27.13;;
49488;SDS011;35382;51.484;11.476;2022-12-18T06:20:45;64.13;;;23.52;;
49488;SDS011;35382;51.484;11.476;2022-12-18T06:22:35;68.32;;;25.48;;
49488;SDS011;35382;51.484;11.476;2022-12-18T06:24:17;73.05;;;24.80;;
49488;SDS011;35382;51.484;11.476;2022-12-18T06:25:58;74.93;;;24.58;;
49488;SDS011;35382;51.484;11.476;2022-12-18T06:27:43;71.65;;;25.95;;
49488;SDS011;35382;51.484;11.476;2022-12-18T06:29:25;78.55;;;24.92;;
49488;SDS011;35382;51.484;11.476;2022-12-18T06:31:06;73.53;;;25.77;;
49488;SDS011;35382;51.484;11.476;2022-12-18T06:32:48;50.00;;;23.55;;
49488;SDS011;35382;51.484;11.476;2022-12-18T06:34:30;60.60;;;24.25;;
49488;SDS011;35382;51.484;11.476;2022-12-18T06:36:12;56.78;;;24.50;;
49488;SDS011;35382;51.484;11.476;2022-12-18T06:37:53;54.45;;;21.58;;
49488;SDS011;35382;51.484;11.476;2022-12-18T06:39:35;55.80;;;22.13;;
49488;SDS011;35382;51.484;11.476;2022-12-18T06:41:17;57.78;;;22.02;;
49488;SDS011;35382;51.484;11.476;2022-12-18T06:43:00;51.53;;;21.60;;
49488;SDS011;35382;51.484;11.476;2022-12-18T06:44:42;75.38;;;23.20;;
49488;SDS011;35382;51.484;11.476;2022-12-18T06:46:23;55.10;;;23.10;;
49488;SDS011;35382;51.484;11.476;2022-12-18T06:48:05;72.97;;;25.27;;
49488;SDS011;35382;51.484;11.476;2022-12-18T06:49:46;56.65;;;23.63;;
49488;SDS011;35382;51.484;11.476;2022-12-18T06:51:27;70.57;;;26.00;;
49488;SDS011;35382;51.484;11.476;2022-12-18T06:53:09;67.13;;;25.95;;
49488;SDS011;35382;51.484;11.476;2022-12-18T06:54:50;67.45;;;25.83;;
49488;SDS011;35382;51.484;11.476;2022-12-18T06:56:31;62.67;;;23.88;;
49488;SDS011;35382;51.484;11.476;2022-12-18T06:58:13;74.72;;;25.13;;
49488;SDS011;35382;51.484;11.476;2022-12-18T06:59:54;71.75;;;25.65;;
49488;SDS011;35382;51.484;11.476;2022-12-18T07:01:35;82.10;;;24.98;;
49488;SDS011;35382;51.484;11.476;2022-12-18T07:03:17;85.65;;;24.20;;
49488;SDS011;35382;51.484;11.476;2022-12-18T07:04:58;70.57;;;24.45;;
49488;SDS011;35382;51.484;11.476;2022-12-18T07:06:43;78.70;;;23.63;;
49488;SDS011;35382;51.484;11.476;2022-12-18T07:08:25;68.03;;;23.25;;
49488;SDS011;35382;51.484;11.476;2022-12-18T07:10:06;58.35;;;21.35;;
49488;SDS011;35382;51.484;11.476;2022-12-18T07:11:48;70.22;;;23.08;;
49488;SDS011;35382;51.484;11.476;2022-12-18T07:13:29;61.53;;;22.58;;
49488;SDS011;35382;51.484;11.476;2022-12-18T07:15:10;51.50;;;20.33;;
49488;SDS011;35382;51.484;11.476;2022-12-18T07:16:52;45.83;;;17.50;;
49488;SDS011;35382;51.484;11.476;2022-12-18T07:18:33;52.28;;;17.98;;
49488;SDS011;35382;51.484;11.476;2022-12-18T07:20:15;38.30;;;16.63;;
49488;SDS011;35382;51.484;11.476;2022-12-18T07:21:56;44.30;;;15.20;;
49488;SDS011;35382;51.484;11.476;2022-12-18T07:23:38;36.13;;;14.60;;
49488;SDS011;35382;51.484;11.476;2022-12-18T07:25:19;33.00;;;14.23;;
49488;SDS011;35382;51.484;11.476;2022-12-18T07:27:00;29.42;;;13.35;;
49488;SDS011;35382;51.484;11.476;2022-12-18T07:28:42;31.15;;;14.20;;
49488;SDS011;35382;51.484;11.476;2022-12-18T07:30:23;35.67;;;14.13;;
49488;SDS011;35382;51.484;11.476;2022-12-18T07:32:05;31.48;;;14.15;;
49488;SDS011;35382;51.484;11.476;2022-12-18T07:33:48;34.53;;;15.93;;
49488;SDS011;35382;51.484;11.476;2022-12-18T07:35:30;44.78;;;18.83;;
49488;SDS011;35382;51.484;11.476;2022-12-18T07:37:11;62.38;;;22.35;;
49488;SDS011;35382;51.484;11.476;2022-12-18T07:38:52;60.40;;;21.05;;
49488;SDS011;35382;51.484;11.476;2022-12-18T07:40:34;79.90;;;25.88;;
49488;SDS011;35382;51.484;11.476;2022-12-18T07:42:15;56.60;;;21.48;;
49488;SDS011;35382;51.484;11.476;2022-12-18T07:44:12;73.03;;;26.80;;
49488;SDS011;35382;51.484;11.476;2022-12-18T07:45:54;79.85;;;26.45;;
49488;SDS011;35382;51.484;11.476;2022-12-18T07:47:35;57.63;;;19.98;;
49488;SDS011;35382;51.484;11.476;2022-12-18T07:49:17;41.70;;;15.18;;
49488;SDS011;35382;51.484;11.476;2022-12-18T07:51:02;38.63;;;16.45;;
49488;SDS011;35382;51.484;11.476;2022-12-18T07:52:45;37.40;;;15.50;;
49488;SDS011;35382;51.484;11.476;2022-12-18T07:54:26;33.47;;;14.40;;
49488;SDS011;35382;51.484;11.476;2022-12-18T07:56:09;28.15;;;12.60;;
49488;SDS011;35382;51.484;11.476;2022-12-18T07:57:52;28.15;;;12.80;;
49488;SDS011;35382;51.484;11.476;2022-12-18T07:59:33;31.17;;;13.30;;
49488;SDS011;35382;51.484;11.476;2022-12-18T08:01:15;36.47;;;14.00;;
49488;SDS011;35382;51.484;11.476;2022-12-18T08:02:57;35.35;;;14.27;;
49488;SDS011;35382;51.484;11.476;2022-12-18T08:04:38;36.03;;;14.30;;
49488;SDS011;35382;51.484;11.476;2022-12-18T08:06:20;39.25;;;15.18;;
49488;SDS011;35382;51.484;11.476;2022-12-18T08:08:01;35.47;;;14.98;;
49488;SDS011;35382;51.484;11.476;2022-12-18T08:09:42;37.53;;;15.63;;
49488;SDS011;35382;51.484;11.476;2022-12-18T08:11:25;52.13;;;20.67;;
49488;SDS011;35382;51.484;11.476;2022-12-18T08:13:07;54.47;;;22.52;;
49488;SDS011;35382;51.484;11.476;2022-12-18T08:14:48;37.08;;;17.25;;
49488;SDS011;35382;51.484;11.476;2022-12-18T08:16:30;40.63;;;17.08;;
49488;SDS011;35382;51.484;11.476;2022-12-18T08:18:11;36.75;;;17.05;;
49488;SDS011;35382;51.484;11.476;2022-12-18T08:19:52;37.40;;;15.93;;
49488;SDS011;35382;51.484;11.476;2022-12-18T08:21:34;40.60;;;18.48;;
49488;SDS011;35382;51.484;11.476;2022-12-18T08:23:15;44.70;;;19.77;;
49488;SDS011;35382;51.484;11.476;2022-12-18T08:24:56;43.88;;;19.42;;
49488;SDS011;35382;51.484;11.476;2022-12-18T08:26:38;46.78;;;21.38;;
49488;SDS011;35382;51.484;11.476;2022-12-18T08:28:19;44.10;;;20.83;;
49488;SDS011;35382;51.484;11.476;2022-12-18T08:30:01;47.25;;;20.10;;
49488;SDS011;35382;51.484;11.476;2022-12-18T08:31:43;41.47;;;20.35;;
49488;SDS011;35382;51.484;11.476;2022-12-18T08:33:25;45.55;;;20.13;;
49488;SDS011;35382;51.484;11.476;2022-12-18T08:35:07;45.22;;;20.48;;
49488;SDS011;35382;51.484;11.476;2022-12-18T08:36:49;47.80;;;20.63;;
49488;SDS011;35382;51.484;11.476;2022-12-18T08:38:33;47.65;;;21.55;;
49488;SDS011;35382;51.484;11.476;2022-12-18T08:40:15;43.10;;;20.20;;
49488;SDS011;35382;51.484;11.476;2022-12-18T08:41:56;43.70;;;19.30;;
49488;SDS011;35382;51.484;11.476;2022-12-18T08:43:56;43.17;;;19.33;;
49488;SDS011;35382;51.484;11.476;2022-12-18T08:45:56;42.97;;;21.60;;
49488;SDS011;35382;51.484;11.476;2022-12-18T08:47:37;44.55;;;19.63;;
49488;SDS011;35382;51.484;11.476;2022-12-18T08:49:19;47.15;;;19.20;;
49488;SDS011;35382;51.484;11.476;2022-12-18T08:51:00;38.45;;;18.42;;
49488;SDS011;35382;51.484;11.476;2022-12-18T08:52:41;41.10;;;19.42;;
49488;SDS011;35382;51.484;11.476;2022-12-18T08:54:23;45.00;;;20.90;;
49488;SDS011;35382;51.484;11.476;2022-12-18T08:56:05;48.70;;;22.60;;
49488;SDS011;35382;51.484;11.476;2022-12-18T08:57:49;44.35;;;20.75;;
49488;SDS011;35382;51.484;11.476;2022-12-18T08:59:30;48.15;;;21.50;;
49488;SDS011;35382;51.484;11.476;2022-12-18T09:01:12;43.25;;;20.63;;
49488;SDS011;35382;51.484;11.476;2022-12-18T09:02:54;47.15;;;22.58;;
49488;SDS011;35382;51.484;11.476;2022-12-18T09:04:35;47.55;;;23.92;;
49488;SDS011;35382;51.484;11.476;2022-12-18T09:06:17;47.13;;;23.90;;
49488;SDS011;35382;51.484;11.476;2022-12-18T09:08:00;48.67;;;22.92;;
49488;SDS011;35382;51.484;11.476;2022-12-18T09:09:42;50.17;;;23.42;;
49488;SDS011;35382;51.484;11.476;2022-12-18T09:11:24;49.95;;;24.42;;
49488;SDS011;35382;51.484;11.476;2022-12-18T09:13:07;42.35;;;22.05;;
49488;SDS011;35382;51.484;11.476;2022-12-18T09:14:48;48.72;;;23.58;;
49488;SDS011;35382;51.484;11.476;2022-12-18T09:16:30;43.65;;;23.60;;
49488;SDS011;35382;51.484;11.476;2022-12-18T09:18:13;51.25;;;24.38;;
49488;SDS011;35382;51.484;11.476;2022-12-18T09:19:55;48.42;;;24.55;;
49488;SDS011;35382;51.484;11.476;2022-12-18T09:21:36;54.63;;;26.33;;
49488;SDS011;35382;51.484;11.476;2022-12-18T09:23:20;55.72;;;26.15;;
49488;SDS011;35382;51.484;11.476;2022-12-18T09:25:02;50.80;;;24.13;;
49488;SDS011;35382;51.484;11.476;2022-12-18T09:26:48;53.03;;;25.30;;
49488;SDS011;35382;51.484;11.476;2022-12-18T09:28:35;57.28;;;28.52;;
49488;SDS011;35382;51.484;11.476;2022-12-18T09:30:17;56.22;;;28.83;;
49488;SDS011;35382;51.484;11.476;2022-12-18T09:31:58;64.18;;;32.08;;
49488;SDS011;35382;51.484;11.476;2022-12-18T09:33:39;68.47;;;32.78;;
49488;SDS011;35382;51.484;11.476;2022-12-18T09:35:21;66.25;;;30.65;;
49488;SDS011;35382;51.484;11.476;2022-12-18T09:37:02;58.05;;;29.40;;
49488;SDS011;35382;51.484;11.476;2022-12-18T09:38:44;53.50;;;27.65;;
49488;SDS011;35382;51.484;11.476;2022-12-18T09:40:34;55.88;;;28.65;;
49488;SDS011;35382;51.484;11.476;2022-12-18T09:42:21;57.30;;;27.27;;
49488;SDS011;35382;51.484;11.476;2022-12-18T09:44:17;47.17;;;25.63;;
49488;SDS011;35382;51.484;11.476;2022-12-18T09:46:31;37.25;;;21.33;;
49488;SDS011;35382;51.484;11.476;2022-12-18T09:48:19;42.45;;;23.13;;
49488;SDS011;35382;51.484;11.476;2022-12-18T09:52:17;53.80;;;25.67;;
49488;SDS011;35382;51.484;11.476;2022-12-18T09:54:05;53.80;;;27.83;;
49488;SDS011;35382;51.484;11.476;2022-12-18T09:55:51;60.72;;;29.77;;
49488;SDS011;35382;51.484;11.476;2022-12-18T09:57:35;49.78;;;25.40;;
49488;SDS011;35382;51.484;11.476;2022-12-18T10:01:12;35.03;;;19.45;;
49488;SDS011;35382;51.484;11.476;2022-12-18T10:03:01;39.60;;;21.38;;
49488;SDS011;35382;51.484;11.476;2022-12-18T10:04:59;41.72;;;22.27;;
49488;SDS011;35382;51.484;11.476;2022-12-18T10:06:58;49.30;;;24.15;;
49488;SDS011;35382;51.484;11.476;2022-12-18T10:08:54;45.08;;;22.88;;
49488;SDS011;35382;51.484;11.476;2022-12-18T10:10:51;46.55;;;21.95;;
49488;SDS011;35382;51.484;11.476;2022-12-18T10:12:51;41.58;;;21.27;;
49488;SDS011;35382;51.484;11.476;2022-12-18T10:14:43;38.05;;;19.35;;
49488;SDS011;35382;51.484;11.476;2022-12-18T10:16:42;38.75;;;18.35;;
49488;SDS011;35382;51.484;11.476;2022-12-18T10:20:43;31.45;;;17.02;;
49488;SDS011;35382;51.484;11.476;2022-12-18T10:24:48;31.77;;;16.65;;
49488;SDS011;35382;51.484;11.476;2022-12-18T10:26:43;38.47;;;18.75;;
49488;SDS011;35382;51.484;11.476;2022-12-18T10:28:25;34.38;;;17.90;;
49488;SDS011;35382;51.484;11.476;2022-12-18T10:30:13;31.40;;;17.50;;
49488;SDS011;35382;51.484;11.476;2022-12-18T10:31:56;31.83;;;17.10;;
49488;SDS011;35382;51.484;11.476;2022-12-18T10:33:38;33.75;;;17.65;;
49488;SDS011;35382;51.484;11.476;2022-12-18T10:35:20;33.40;;;18.23;;
49488;SDS011;35382;51.484;11.476;2022-12-18T10:37:06;31.67;;;17.27;;
49488;SDS011;35382;51.484;11.476;2022-12-18T10:39:10;33.72;;;17.63;;
49488;SDS011;35382;51.484;11.476;2022-12-18T10:43:12;33.53;;;17.27;;